createdAt,value
2018-08-09T00:01:23.470Z,21.20
2018-08-09T00:03:54.203Z,21.30
2018-08-09T00:06:24.584Z,21.40
2018-08-09T00:08:55.060Z,21.50
2018-08-09T00:13:55.300Z,21.60
2018-08-09T00:16:25.755Z,21.60
2018-08-09T00:18:56.430Z,21.70
2018-08-09T00:21:26.931Z,21.70
2018-08-09T00:23:57.470Z,21.60
2018-08-09T00:26:27.822Z,21.60
2018-08-09T00:28:58.821Z,21.40
2018-08-09T00:31:29.373Z,21.40
2018-08-09T00:33:59.822Z,21.40
2018-08-09T00:36:30.254Z,21.40
2018-08-09T00:39:00.782Z,21.40
2018-08-09T00:41:31.211Z,21.30
2018-08-09T00:44:01.834Z,21.20
2018-08-09T00:46:32.305Z,21.10
2018-08-09T00:49:07.954Z,21.00
2018-08-09T00:51:38.935Z,21.10
2018-08-09T00:54:09.238Z,21.10
2018-08-09T00:56:39.734Z,20.90
2018-08-09T00:59:10.110Z,20.70
2018-08-09T01:01:40.688Z,20.70
2018-08-09T01:06:40.927Z,20.70
2018-08-09T01:09:14.693Z,20.60
2018-08-09T01:11:45.521Z,20.50
2018-08-09T01:14:16.000Z,20.60
2018-08-09T01:16:46.422Z,20.60
2018-08-09T01:19:16.861Z,20.70
2018-08-09T01:21:47.593Z,20.70
2018-08-09T01:24:17.949Z,20.60
2018-08-09T01:26:48.378Z,20.50
2018-08-09T01:29:18.862Z,20.40
2018-08-09T01:31:49.410Z,20.30
2018-08-09T01:34:19.787Z,20.20
2018-08-09T01:36:50.338Z,20.20
2018-08-09T01:42:01.145Z,20.00
2018-08-09T01:44:31.706Z,20.00
2018-08-09T01:47:02.357Z,19.90
2018-08-09T01:49:32.623Z,19.80
2018-08-09T01:52:02.924Z,19.90
2018-08-09T01:54:33.294Z,19.90
2018-08-09T01:57:03.682Z,19.90
2018-08-09T01:59:34.083Z,19.80
2018-08-09T02:02:04.666Z,19.70
2018-08-09T02:04:35.066Z,19.50
2018-08-09T02:07:05.466Z,19.30
2018-08-09T02:09:35.969Z,19.20
2018-08-09T02:12:06.450Z,19.20
2018-08-09T02:14:36.930Z,19.30
2018-08-09T02:17:07.743Z,19.30
2018-08-09T02:19:38.380Z,19.40
2018-08-09T02:22:08.976Z,19.40
2018-08-09T02:24:39.245Z,19.40
2018-08-09T02:27:09.574Z,19.50
2018-08-09T02:29:40.265Z,19.50
2018-08-09T02:32:11.515Z,19.60
2018-08-09T02:34:41.995Z,19.70
2018-08-09T02:39:42.029Z,19.80
2018-08-09T02:42:12.614Z,19.80
2018-08-09T02:44:43.195Z,19.60
2018-08-09T02:47:13.750Z,19.60
2018-08-09T02:49:44.154Z,19.50
2018-08-09T02:52:14.565Z,19.50
2018-08-09T02:54:45.123Z,19.50
2018-08-09T02:57:15.533Z,19.50
2018-08-09T02:59:46.058Z,19.50
2018-08-09T03:02:16.461Z,19.50
2018-08-09T03:04:47.010Z,19.50
2018-08-09T03:07:17.338Z,19.50
2018-08-09T03:12:17.478Z,19.50
2018-08-09T03:14:47.886Z,19.50
2018-08-09T03:17:18.352Z,19.50
2018-08-09T03:19:48.754Z,19.40
2018-08-09T03:22:19.106Z,19.40
2018-08-09T03:24:49.473Z,19.30
2018-08-09T03:27:19.968Z,19.10
2018-08-09T03:29:50.537Z,18.90
2018-08-09T03:32:20.906Z,18.90
2018-08-09T03:34:51.413Z,18.90
2018-08-09T03:37:21.998Z,18.80
2018-08-09T03:39:52.445Z,18.90
2018-08-09T03:42:22.885Z,18.90
2018-08-09T03:44:53.323Z,19.10
2018-08-09T03:47:23.683Z,19.20
2018-08-09T03:49:54.217Z,19.40
2018-08-09T03:52:24.785Z,19.50
2018-08-09T03:54:55.169Z,19.60
2018-08-09T03:57:25.562Z,19.70
2018-08-09T03:59:55.827Z,19.80
2018-08-09T04:02:26.252Z,19.80
2018-08-09T04:04:56.501Z,19.70
2018-08-09T04:07:27.051Z,19.80
2018-08-09T04:09:57.482Z,19.90
2018-08-09T04:12:28.038Z,19.90
2018-08-09T04:14:58.313Z,20.00
2018-08-09T04:17:28.797Z,20.10
2018-08-09T04:19:59.265Z,20.30
2018-08-09T04:22:29.742Z,20.40
2018-08-09T04:27:30.243Z,20.70
2018-08-09T04:30:00.673Z,20.70
2018-08-09T04:32:31.270Z,20.80
2018-08-09T04:35:01.682Z,20.90
2018-08-09T04:37:32.196Z,20.90
2018-08-09T04:40:02.706Z,20.90
2018-08-09T04:45:02.622Z,20.80
2018-08-09T04:47:33.027Z,20.80
2018-08-09T04:50:03.690Z,20.70
2018-08-09T04:55:03.825Z,20.50
2018-08-09T04:57:34.618Z,20.30
2018-08-09T05:00:05.985Z,20.30
2018-08-09T05:02:36.326Z,20.20
2018-08-09T05:05:07.156Z,20.20
2018-08-09T05:07:37.593Z,20.40
2018-08-09T05:10:10.388Z,20.30
2018-08-09T05:12:42.381Z,20.40
2018-08-09T05:15:13.582Z,20.50
2018-08-09T05:17:44.264Z,20.60
2018-08-09T05:20:14.646Z,20.80
2018-08-09T05:25:14.649Z,21.00
2018-08-09T05:27:45.098Z,21.10
2018-08-09T05:30:15.609Z,21.20
2018-08-09T05:32:46.182Z,21.30
2018-08-09T05:35:16.789Z,21.50
2018-08-09T05:37:47.109Z,21.60
2018-08-09T05:40:17.518Z,21.80
2018-08-09T05:42:47.992Z,22.10
2018-08-09T05:47:48.128Z,22.60
2018-08-09T05:50:18.594Z,22.80
2018-08-09T05:52:49.274Z,22.90
2018-08-09T05:55:19.870Z,23.10
2018-08-09T05:57:50.342Z,23.30
2018-08-09T06:00:20.889Z,23.50
2018-08-09T06:02:51.431Z,23.70
2018-08-09T06:05:21.883Z,23.90
2018-08-09T06:07:52.254Z,24.00
2018-08-09T06:10:23.090Z,24.20
2018-08-09T06:12:53.486Z,24.20
2018-08-09T06:15:23.998Z,24.50
2018-08-09T06:17:54.469Z,24.80
2018-08-09T06:22:54.578Z,25.20
2018-08-09T06:25:25.115Z,25.40
2018-08-09T06:30:25.461Z,25.50
2018-08-09T06:35:25.493Z,25.90
2018-08-09T06:37:56.051Z,25.70
2018-08-09T06:40:26.533Z,25.90
2018-08-09T06:42:56.993Z,26.10
2018-08-09T06:47:57.163Z,26.40
2018-08-09T06:50:27.738Z,26.40
2018-08-09T06:52:58.178Z,26.50
2018-08-09T06:57:58.663Z,26.60
2018-08-09T07:00:29.111Z,26.60
2018-08-09T07:02:59.545Z,26.60
2018-08-09T07:05:29.883Z,26.50
2018-08-09T07:08:00.441Z,26.60
2018-08-09T07:10:30.850Z,26.60
2018-08-09T07:13:01.267Z,26.60
2018-08-09T07:15:31.613Z,26.70
2018-08-09T07:20:31.771Z,27.00
2018-08-09T07:23:02.279Z,27.10
2018-08-09T07:25:32.755Z,27.00
2018-08-09T07:28:03.588Z,27.10
2018-08-09T07:30:34.773Z,26.90
2018-08-09T07:33:06.283Z,27.00
2018-08-09T07:35:36.601Z,27.10
2018-08-09T07:38:07.419Z,27.20
2018-08-09T07:40:38.034Z,27.40
2018-08-09T07:43:08.573Z,27.40
2018-08-09T07:48:08.722Z,27.70
2018-08-09T07:50:39.118Z,27.90
2018-08-09T07:53:09.646Z,27.90
2018-08-09T07:55:40.182Z,27.80
2018-08-09T07:58:10.834Z,27.90
2018-08-09T08:05:40.877Z,28.60
2018-08-09T08:10:41.031Z,29.00
2018-08-09T08:13:11.346Z,29.00
2018-08-09T08:18:11.603Z,29.40
2018-08-09T08:20:41.970Z,29.50
2018-08-09T08:25:41.970Z,29.70
2018-08-09T08:28:12.541Z,29.80
2018-08-09T08:30:42.982Z,30.10
2018-08-09T08:33:13.297Z,30.30
2018-08-09T08:35:43.497Z,30.50
2018-08-09T08:38:14.045Z,30.60
2018-08-09T08:40:44.517Z,30.80
2018-08-09T08:43:15.062Z,30.20
2018-08-09T08:45:45.362Z,30.10
2018-08-09T08:48:15.792Z,30.20
2018-08-09T08:50:46.088Z,30.40
2018-08-09T08:55:46.398Z,30.10
2018-08-09T08:58:17.250Z,29.90
2018-08-09T09:00:47.542Z,29.90
2018-08-09T09:03:17.943Z,30.20
2018-08-09T09:05:48.373Z,30.50
2018-08-09T09:08:18.850Z,30.80
2018-08-09T09:10:53.935Z,30.40
2018-08-09T09:13:24.682Z,30.70
2018-08-09T09:15:55.163Z,31.20
2018-08-09T09:20:55.270Z,31.20
2018-08-09T09:23:25.671Z,31.20
2018-08-09T09:25:56.254Z,31.60
2018-08-09T09:28:26.765Z,31.90
2018-08-09T09:30:57.244Z,32.20
2018-08-09T09:33:27.755Z,32.30
2018-08-09T09:35:58.034Z,32.50
2018-08-09T09:38:28.477Z,32.60
2018-08-09T09:40:59.427Z,32.50
2018-08-09T09:45:59.638Z,32.00
2018-08-09T09:48:30.178Z,31.90
2018-08-09T09:51:00.574Z,31.60
2018-08-09T09:53:31.182Z,31.80
2018-08-09T09:56:01.691Z,31.90
2018-08-09T09:58:32.193Z,32.20
2018-08-09T10:01:07.593Z,32.60
2018-08-09T10:03:37.923Z,32.90
2018-08-09T10:06:08.525Z,32.80
2018-08-09T10:08:38.935Z,32.20
2018-08-09T10:13:38.877Z,32.40
2018-08-09T10:16:09.251Z,32.60
2018-08-09T10:18:39.857Z,33.10
2018-08-09T10:21:10.233Z,33.40
2018-08-09T10:23:40.633Z,33.50
2018-08-09T10:26:11.190Z,33.80
2018-08-09T10:28:41.693Z,33.60
2018-08-09T10:31:12.042Z,33.60
2018-08-09T10:33:42.303Z,33.80
2018-08-09T10:36:12.667Z,34.00
2018-08-09T10:38:42.957Z,34.10
2018-08-09T10:41:13.547Z,34.30
2018-08-09T10:48:43.362Z,33.40
2018-08-09T10:51:14.059Z,33.40
2018-08-09T10:53:44.327Z,33.30
2018-08-09T10:56:14.773Z,33.60
2018-08-09T10:58:45.305Z,33.40
2018-08-09T11:01:15.701Z,33.20
2018-08-09T11:03:45.997Z,33.40
2018-08-09T11:06:16.350Z,33.70
2018-08-09T11:08:46.813Z,34.00
2018-08-09T11:11:17.154Z,34.00
2018-08-09T11:13:47.515Z,33.80
2018-08-09T11:16:17.974Z,33.80
2018-08-09T11:23:47.601Z,34.60
2018-08-09T11:26:17.982Z,34.50
2018-08-09T11:28:48.498Z,34.90
2018-08-09T11:31:19.173Z,35.50
2018-08-09T11:33:49.473Z,34.90
2018-08-09T11:36:19.803Z,34.80
2018-08-09T11:38:50.135Z,35.40
2018-08-09T11:41:20.495Z,35.70
2018-08-09T11:43:50.730Z,36.00
2018-08-09T11:48:50.629Z,35.80
2018-08-09T11:51:20.989Z,36.30
2018-08-09T11:56:20.757Z,37.40
2018-08-09T11:58:51.134Z,37.60
2018-08-09T12:03:51.183Z,36.10
2018-08-09T12:06:21.463Z,37.10
2018-08-09T12:08:51.839Z,37.70
2018-08-09T12:11:22.253Z,38.00
2018-08-09T12:13:52.895Z,38.90
2018-08-09T12:16:23.271Z,38.90
2018-08-09T12:18:53.575Z,38.90
2018-08-09T12:21:24.026Z,37.90
2018-08-09T12:23:54.761Z,37.60
2018-08-09T12:26:25.179Z,38.00
2018-08-09T12:28:55.772Z,36.90
2018-08-09T12:31:26.213Z,36.00
2018-08-09T12:33:56.762Z,35.50
2018-08-09T12:36:27.286Z,34.80
2018-08-09T12:38:57.802Z,34.60
2018-08-09T12:41:28.395Z,35.60
2018-08-09T12:43:58.781Z,36.60
2018-08-09T12:46:29.166Z,36.60
2018-08-09T12:48:59.645Z,35.80
2018-08-09T12:51:30.139Z,35.10
2018-08-09T12:54:00.529Z,34.60
2018-08-09T12:56:31.434Z,34.20
2018-08-09T12:59:01.880Z,33.70
2018-08-09T13:04:01.842Z,33.50
2018-08-09T13:06:32.321Z,33.10
2018-08-09T13:09:02.866Z,32.80
2018-08-09T13:11:33.287Z,32.70
2018-08-09T13:14:04.161Z,32.50
2018-08-09T13:16:34.558Z,32.50
2018-08-09T13:21:34.734Z,32.30
2018-08-09T13:24:05.185Z,32.30
2018-08-09T13:26:35.543Z,32.40
2018-08-09T13:31:35.653Z,32.50
2018-08-09T13:34:06.186Z,32.40
2018-08-09T13:36:36.975Z,32.30
2018-08-09T13:39:11.413Z,31.70
2018-08-09T13:41:42.846Z,31.30
2018-08-09T13:44:13.618Z,31.00
2018-08-09T13:46:44.175Z,30.90
2018-08-09T13:49:14.722Z,30.90
2018-08-09T13:51:45.230Z,30.80
2018-08-09T13:54:16.027Z,30.80
2018-08-09T13:56:46.439Z,30.60
2018-08-09T13:59:16.849Z,30.70
2018-08-09T14:01:47.351Z,30.60
2018-08-09T14:06:47.314Z,29.70
2018-08-09T14:09:17.895Z,29.10
2018-08-09T14:11:48.440Z,28.80
2018-08-09T14:16:48.625Z,28.00
2018-08-09T14:19:18.989Z,27.40
2018-08-09T14:21:49.529Z,26.80
2018-08-09T14:24:20.203Z,26.30
2018-08-09T14:26:50.623Z,26.10
2018-08-09T14:29:21.135Z,25.90
2018-08-09T14:31:51.648Z,25.80
2018-08-09T14:34:22.159Z,25.80
2018-08-09T14:36:52.593Z,25.90
2018-08-09T14:41:52.996Z,26.10
2018-08-09T14:44:23.385Z,26.30
2018-08-09T14:46:53.934Z,26.50
2018-08-09T14:49:25.486Z,26.80
2018-08-09T14:51:55.874Z,26.90
2018-08-09T14:56:56.082Z,26.90
2018-08-09T15:20:29.621Z,31.00
2018-08-09T15:23:00.128Z,31.90
2018-08-09T15:25:30.817Z,32.90
2018-08-09T15:28:01.410Z,32.50
2018-08-09T15:30:31.863Z,31.70
2018-08-09T15:35:49.006Z,30.90
2018-08-09T15:40:49.134Z,31.60
2018-08-09T15:45:49.206Z,31.10
2018-08-09T15:48:19.822Z,31.30
2018-08-09T15:50:50.270Z,31.80
2018-08-09T15:53:20.705Z,32.50
2018-08-09T15:55:51.022Z,33.60
2018-08-09T15:58:21.646Z,33.80
2018-08-09T16:00:52.085Z,33.30
2018-08-09T16:03:22.862Z,33.80
2018-08-09T16:05:53.399Z,34.70
2018-08-09T16:10:53.673Z,36.20
2018-08-09T16:13:24.305Z,36.30
2018-08-09T16:15:54.769Z,36.30
2018-08-09T16:18:25.218Z,35.60
2018-08-09T16:20:55.754Z,34.30
2018-08-09T16:25:56.091Z,32.60
2018-08-09T16:30:56.410Z,32.00
2018-08-09T16:33:26.957Z,32.20
2018-08-09T16:35:57.543Z,32.20
2018-08-09T16:38:28.246Z,32.10
2018-08-09T16:40:58.882Z,31.90
2018-08-09T16:43:29.281Z,32.00
2018-08-09T16:45:59.689Z,32.10
2018-08-09T16:48:30.367Z,31.90
2018-08-09T16:51:00.917Z,31.50
2018-08-09T16:53:31.350Z,31.10
2018-08-09T16:56:01.770Z,30.80
2018-08-09T16:58:32.286Z,31.10
2018-08-09T17:01:02.880Z,31.40
2018-08-09T17:06:02.933Z,32.10
2018-08-09T17:08:33.480Z,31.90
2018-08-09T17:11:03.950Z,31.60
2018-08-09T17:13:34.281Z,31.80
2018-08-09T17:16:04.757Z,31.70
2018-08-09T17:18:35.388Z,31.70
2018-08-09T17:21:05.774Z,31.50
2018-08-09T17:23:36.329Z,31.30
2018-08-09T17:26:06.894Z,31.00
2018-08-09T17:28:37.641Z,30.80
2018-08-09T17:31:08.274Z,30.70
2018-08-09T17:33:38.706Z,30.30
2018-08-09T17:36:09.010Z,29.80
2018-08-09T17:38:39.581Z,29.50
2018-08-09T17:41:10.103Z,29.20
2018-08-09T17:43:40.663Z,28.90
2018-08-09T17:46:11.072Z,28.90
2018-08-09T17:51:11.233Z,29.10
2018-08-09T17:53:41.674Z,29.10
2018-08-09T17:56:12.113Z,29.00
2018-08-09T17:58:42.518Z,29.00
2018-08-09T18:01:13.019Z,28.90
2018-08-09T18:06:13.227Z,28.60
2018-08-09T18:08:43.722Z,28.40
2018-08-09T18:11:14.085Z,28.20
2018-08-09T18:13:44.547Z,28.00
2018-08-09T18:16:15.038Z,27.80
2018-08-09T18:18:45.535Z,27.60
2018-08-09T18:21:15.882Z,27.50
2018-08-09T18:23:46.362Z,27.30
2018-08-09T18:26:16.826Z,26.90
2018-08-09T18:28:47.314Z,27.00
2018-08-09T18:31:17.823Z,27.00
2018-08-09T18:33:48.153Z,27.00
2018-08-09T18:38:48.310Z,26.90
2018-08-09T18:41:18.781Z,26.50
2018-08-09T18:43:49.418Z,26.50
2018-08-09T18:46:19.996Z,26.40
2018-08-09T18:48:50.629Z,26.20
2018-08-09T18:51:21.182Z,26.10
2018-08-09T18:53:51.999Z,26.30
2018-08-09T18:56:22.586Z,26.40
2018-08-09T18:58:53.178Z,26.30
2018-08-09T19:01:23.802Z,26.20
2018-08-09T19:03:54.442Z,26.00
2018-08-09T19:06:24.911Z,25.80
2018-08-09T19:08:55.407Z,25.70
2018-08-09T19:11:26.268Z,25.60
2018-08-09T19:13:56.887Z,25.50
2018-08-09T19:16:27.545Z,25.50
2018-08-09T19:21:28.914Z,25.30
2018-08-09T19:23:59.646Z,25.20
2018-08-09T19:29:00.047Z,25.10
2018-08-09T19:31:30.552Z,25.00
2018-08-09T19:34:01.295Z,24.90
2018-08-09T19:36:31.871Z,24.90
2018-08-09T19:39:02.332Z,24.90
2018-08-09T19:41:32.826Z,24.90
2018-08-09T19:44:03.231Z,24.90
2018-08-09T19:46:33.935Z,24.80
2018-08-09T19:49:04.571Z,24.90
2018-08-09T19:51:35.055Z,24.90
2018-08-09T19:56:35.314Z,25.00
2018-08-09T19:59:06.677Z,25.10
2018-08-09T20:01:37.238Z,25.00
2018-08-09T20:04:07.682Z,24.90
2018-08-09T20:06:38.303Z,24.80
2018-08-09T20:11:39.721Z,24.60
2018-08-09T20:14:10.343Z,24.40
2018-08-09T20:16:40.843Z,24.30
2018-08-09T20:19:11.251Z,24.20
2018-08-09T20:21:41.670Z,24.20
2018-08-09T20:24:12.349Z,24.20
2018-08-09T20:26:42.854Z,24.10
2018-08-09T20:29:13.615Z,24.10
2018-08-09T20:31:44.012Z,24.00
2018-08-09T20:34:14.583Z,24.00
2018-08-09T20:36:45.171Z,23.90
2018-08-09T20:39:15.550Z,23.80
2018-08-09T20:41:46.167Z,23.80
2018-08-09T20:47:04.529Z,23.70
2018-08-09T20:49:35.115Z,23.70
2018-08-09T20:52:05.646Z,23.80
2018-08-09T20:54:36.078Z,23.80
2018-08-09T20:59:36.310Z,23.90
2018-08-09T21:02:06.952Z,23.90
2018-08-09T21:04:37.473Z,23.80
2018-08-09T21:09:39.822Z,23.80
2018-08-09T21:12:10.395Z,23.70
2018-08-09T21:17:34.322Z,23.80
2018-08-09T21:20:05.410Z,23.70
2018-08-09T21:22:40.150Z,23.60
2018-08-09T21:25:11.157Z,23.60
2018-08-09T21:27:41.882Z,23.50
2018-08-09T21:30:14.997Z,23.50
2018-08-09T21:32:45.933Z,23.40
2018-08-09T21:35:16.366Z,23.40
2018-08-09T21:40:24.618Z,23.50
2018-08-09T21:42:54.991Z,23.60
2018-08-09T21:45:25.477Z,23.60
2018-08-09T21:50:25.615Z,23.90
2018-08-09T21:52:56.310Z,24.00
2018-08-09T21:55:26.775Z,24.00
2018-08-09T21:58:01.041Z,23.90
2018-08-09T22:00:53.356Z,23.90
2018-08-09T22:03:27.161Z,23.70
2018-08-09T22:06:02.611Z,23.80
2018-08-09T22:08:38.068Z,23.80
2018-08-09T22:11:14.416Z,23.80
2018-08-09T22:13:50.088Z,23.70
2018-08-09T22:16:25.502Z,23.70
2018-08-09T22:19:01.036Z,23.70
2018-08-09T22:21:36.353Z,23.80
2018-08-09T22:24:06.924Z,23.90
2018-08-09T22:26:37.372Z,24.00
2018-08-09T22:29:07.880Z,23.90
2018-08-09T22:31:38.331Z,23.90
2018-08-09T22:34:08.725Z,23.90
2018-08-09T22:36:39.139Z,23.90
2018-08-09T22:39:10.305Z,23.80
2018-08-09T22:41:40.830Z,23.80
2018-08-09T22:50:53.795Z,23.70
2018-08-09T22:53:24.491Z,23.80
2018-08-09T22:58:25.217Z,23.80
2018-08-09T23:00:55.703Z,23.70
2018-08-09T23:03:26.275Z,23.60
2018-08-09T23:05:57.317Z,23.60
2018-08-09T23:08:28.091Z,23.60
2018-08-09T23:10:58.601Z,23.50
2018-08-09T23:13:29.276Z,23.50
2018-08-09T23:15:59.967Z,23.50
2018-08-09T23:23:29.997Z,23.30
2018-08-09T23:26:00.549Z,23.20
2018-08-09T23:31:00.872Z,23.10
2018-08-09T23:33:31.248Z,23.10
2018-08-09T23:36:01.763Z,23.00
2018-08-09T23:38:32.244Z,22.90
2018-08-09T23:41:02.721Z,22.80
2018-08-09T23:43:33.128Z,22.80
2018-08-09T23:51:03.220Z,22.50
2018-08-09T23:53:33.780Z,22.40
2018-08-09T23:56:04.331Z,22.20
2018-08-09T23:58:34.863Z,22.10
